sensor_id;sensor_type;location;lat;lon;timestamp;P1;durP1;ratioP1;P2;durP2;ratioP2
64367;SDS011;50692;53.314;-6.300;2022-09-21T15:11:55;1.65;;;1.02;;
64367;SDS011;50692;53.314;-6.300;2022-09-21T15:14:50;1.63;;;1.10;;
64367;SDS011;50692;53.314;-6.300;2022-09-21T15:17:58;2.85;;;1.38;;
64367;SDS011;50692;53.314;-6.300;2022-09-21T15:20:56;2.20;;;1.00;;
64367;SDS011;50692;53.314;-6.300;2022-09-21T15:23:47;1.80;;;1.27;;
64367;SDS011;50692;53.314;-6.300;2022-09-21T15:26:35;3.38;;;1.45;;
64367;SDS011;50692;53.314;-6.300;2022-09-21T15:29:25;2.40;;;1.27;;
64367;SDS011;50692;53.314;-6.300;2022-09-21T15:35:25;2.42;;;1.40;;
64367;SDS011;50692;53.314;-6.300;2022-09-21T15:38:30;1.90;;;1.20;;
64367;SDS011;50692;53.314;-6.300;2022-09-21T15:44:27;1.98;;;1.58;;
64367;SDS011;50692;53.314;-6.300;2022-09-21T15:47:20;2.20;;;1.30;;
64367;SDS011;50692;53.314;-6.300;2022-09-21T15:50:11;3.08;;;1.65;;
64367;SDS011;50692;53.314;-6.300;2022-09-21T15:53:00;1.30;;;1.20;;
64367;SDS011;50692;53.314;-6.300;2022-09-21T15:55:50;3.28;;;1.38;;
64367;SDS011;50692;53.314;-6.300;2022-09-21T15:58:37;2.08;;;1.30;;
64367;SDS011;50692;53.314;-6.300;2022-09-21T16:01:24;1.75;;;1.23;;
64367;SDS011;50692;53.314;-6.300;2022-09-21T16:04:22;1.38;;;1.20;;
64367;SDS011;50692;53.314;-6.300;2022-09-21T16:13:22;1.75;;;1.25;;
64367;SDS011;50692;53.314;-6.300;2022-09-21T16:16:27;2.60;;;1.45;;
64367;SDS011;50692;53.314;-6.300;2022-09-21T16:19:43;1.48;;;1.38;;
64367;SDS011;50692;53.314;-6.300;2022-09-21T16:22:39;1.65;;;1.50;;
64367;SDS011;50692;53.314;-6.300;2022-09-21T16:25:32;1.38;;;1.20;;
64367;SDS011;50692;53.314;-6.300;2022-09-21T16:28:25;1.65;;;1.00;;
64367;SDS011;50692;53.314;-6.300;2022-09-21T16:40:09;2.35;;;1.23;;
64367;SDS011;50692;53.314;-6.300;2022-09-21T16:42:55;1.90;;;1.48;;
64367;SDS011;50692;53.314;-6.300;2022-09-21T16:45:41;2.95;;;1.52;;
64367;SDS011;50692;53.314;-6.300;2022-09-21T16:48:27;2.08;;;1.63;;
64367;SDS011;50692;53.314;-6.300;2022-09-21T16:51:14;2.80;;;1.75;;
64367;SDS011;50692;53.314;-6.300;2022-09-21T16:54:10;3.17;;;2.10;;
64367;SDS011;50692;53.314;-6.300;2022-09-21T16:56:58;2.90;;;1.95;;
64367;SDS011;50692;53.314;-6.300;2022-09-21T16:59:45;2.88;;;2.13;;
64367;SDS011;50692;53.314;-6.300;2022-09-21T17:02:33;2.95;;;1.95;;
64367;SDS011;50692;53.314;-6.300;2022-09-21T17:05:19;2.88;;;2.22;;
64367;SDS011;50692;53.314;-6.300;2022-09-21T17:08:12;2.95;;;2.15;;
64367;SDS011;50692;53.314;-6.300;2022-09-21T17:10:59;2.20;;;1.88;;
64367;SDS011;50692;53.314;-6.300;2022-09-21T17:16:34;2.75;;;2.25;;
64367;SDS011;50692;53.314;-6.300;2022-09-21T17:19:21;3.20;;;2.35;;
64367;SDS011;50692;53.314;-6.300;2022-09-21T17:22:08;2.28;;;2.05;;
64367;SDS011;50692;53.314;-6.300;2022-09-21T17:25:01;4.82;;;2.90;;
64367;SDS011;50692;53.314;-6.300;2022-09-21T17:27:47;3.10;;;2.35;;
64367;SDS011;50692;53.314;-6.300;2022-09-21T17:30:33;2.65;;;2.20;;
64367;SDS011;50692;53.314;-6.300;2022-09-21T17:33:20;3.42;;;2.30;;
64367;SDS011;50692;53.314;-6.300;2022-09-21T17:36:14;3.67;;;2.20;;
64367;SDS011;50692;53.314;-6.300;2022-09-21T17:39:01;2.90;;;2.20;;
64367;SDS011;50692;53.314;-6.300;2022-09-21T17:47:36;3.05;;;2.20;;
64367;SDS011;50692;53.314;-6.300;2022-09-21T17:50:25;2.78;;;2.22;;
64367;SDS011;50692;53.314;-6.300;2022-09-21T17:59:21;3.58;;;2.35;;
64367;SDS011;50692;53.314;-6.300;2022-09-21T18:02:21;3.42;;;2.28;;
64367;SDS011;50692;53.314;-6.300;2022-09-21T18:05:14;3.92;;;2.60;;
64367;SDS011;50692;53.314;-6.300;2022-09-21T18:08:10;5.00;;;2.28;;
64367;SDS011;50692;53.314;-6.300;2022-09-21T18:11:43;3.83;;;2.40;;
64367;SDS011;50692;53.314;-6.300;2022-09-21T18:20:05;2.70;;;2.17;;
64367;SDS011;50692;53.314;-6.300;2022-09-21T18:23:13;4.18;;;2.40;;
64367;SDS011;50692;53.314;-6.300;2022-09-21T18:26:03;3.38;;;2.13;;
64367;SDS011;50692;53.314;-6.300;2022-09-21T18:28:49;3.97;;;2.40;;
64367;SDS011;50692;53.314;-6.300;2022-09-21T18:38:11;2.47;;;2.20;;
64367;SDS011;50692;53.314;-6.300;2022-09-21T18:56:07;4.32;;;2.75;;
64367;SDS011;50692;53.314;-6.300;2022-09-21T18:58:56;2.67;;;1.90;;
64367;SDS011;50692;53.314;-6.300;2022-09-21T19:01:43;3.17;;;2.00;;
64367;SDS011;50692;53.314;-6.300;2022-09-21T19:04:32;3.35;;;2.30;;
64367;SDS011;50692;53.314;-6.300;2022-09-21T19:07:35;4.18;;;2.25;;
64367;SDS011;50692;53.314;-6.300;2022-09-21T19:10:32;2.78;;;2.20;;
64367;SDS011;50692;53.314;-6.300;2022-09-21T19:25:06;4.10;;;1.90;;
64367;SDS011;50692;53.314;-6.300;2022-09-21T19:31:15;2.83;;;1.70;;
64367;SDS011;50692;53.314;-6.300;2022-09-21T19:34:14;2.55;;;2.00;;
64367;SDS011;50692;53.314;-6.300;2022-09-21T19:37:02;3.13;;;2.13;;
64367;SDS011;50692;53.314;-6.300;2022-09-21T19:39:48;3.75;;;1.98;;
64367;SDS011;50692;53.314;-6.300;2022-09-21T19:42:57;2.20;;;1.88;;
64367;SDS011;50692;53.314;-6.300;2022-09-21T19:49:15;2.00;;;1.80;;
64367;SDS011;50692;53.314;-6.300;2022-09-21T19:52:03;3.42;;;1.90;;
64367;SDS011;50692;53.314;-6.300;2022-09-21T19:54:50;2.70;;;1.95;;
64367;SDS011;50692;53.314;-6.300;2022-09-21T19:57:54;2.55;;;1.98;;
64367;SDS011;50692;53.314;-6.300;2022-09-21T20:00:59;3.97;;;2.15;;
64367;SDS011;50692;53.314;-6.300;2022-09-21T20:03:46;3.67;;;1.92;;
64367;SDS011;50692;53.314;-6.300;2022-09-21T20:06:37;3.63;;;2.15;;
64367;SDS011;50692;53.314;-6.300;2022-09-21T20:09:31;2.40;;;2.00;;
64367;SDS011;50692;53.314;-6.300;2022-09-21T20:12:29;2.65;;;2.00;;
64367;SDS011;50692;53.314;-6.300;2022-09-21T20:15:22;3.03;;;1.90;;
64367;SDS011;50692;53.314;-6.300;2022-09-21T20:18:21;3.08;;;1.95;;
64367;SDS011;50692;53.314;-6.300;2022-09-21T20:21:16;2.05;;;1.40;;
64367;SDS011;50692;53.314;-6.300;2022-09-21T20:27:15;3.95;;;1.92;;
64367;SDS011;50692;53.314;-6.300;2022-09-21T20:30:10;3.78;;;3.33;;
64367;SDS011;50692;53.314;-6.300;2022-09-21T20:33:21;5.15;;;3.67;;
64367;SDS011;50692;53.314;-6.300;2022-09-21T20:36:07;4.65;;;2.90;;
64367;SDS011;50692;53.314;-6.300;2022-09-21T20:38:55;4.82;;;3.55;;
64367;SDS011;50692;53.314;-6.300;2022-09-21T20:41:42;3.92;;;3.00;;
64367;SDS011;50692;53.314;-6.300;2022-09-21T20:44:27;4.18;;;3.78;;
64367;SDS011;50692;53.314;-6.300;2022-09-21T20:47:13;4.88;;;2.50;;
64367;SDS011;50692;53.314;-6.300;2022-09-21T20:49:59;3.67;;;2.22;;
64367;SDS011;50692;53.314;-6.300;2022-09-21T20:52:46;2.90;;;2.70;;
64367;SDS011;50692;53.314;-6.300;2022-09-21T20:55:32;3.38;;;2.40;;
64367;SDS011;50692;53.314;-6.300;2022-09-21T20:58:18;2.95;;;2.22;;
64367;SDS011;50692;53.314;-6.300;2022-09-21T21:01:05;3.33;;;2.22;;
64367;SDS011;50692;53.314;-6.300;2022-09-21T21:03:55;2.85;;;2.00;;
64367;SDS011;50692;53.314;-6.300;2022-09-21T21:06:47;2.67;;;1.95;;
64367;SDS011;50692;53.314;-6.300;2022-09-21T21:09:33;3.45;;;2.13;;
64367;SDS011;50692;53.314;-6.300;2022-09-21T21:12:19;2.88;;;1.85;;
64367;SDS011;50692;53.314;-6.300;2022-09-21T21:15:05;5.45;;;2.30;;
64367;SDS011;50692;53.314;-6.300;2022-09-21T21:17:51;2.38;;;1.80;;
64367;SDS011;50692;53.314;-6.300;2022-09-21T21:20:37;2.67;;;1.80;;
64367;SDS011;50692;53.314;-6.300;2022-09-21T21:23:23;2.42;;;1.73;;
64367;SDS011;50692;53.314;-6.300;2022-09-21T21:26:09;2.92;;;1.90;;
64367;SDS011;50692;53.314;-6.300;2022-09-21T21:28:55;2.70;;;1.80;;
64367;SDS011;50692;53.314;-6.300;2022-09-21T21:31:41;2.50;;;1.85;;
64367;SDS011;50692;53.314;-6.300;2022-09-21T21:34:28;2.72;;;2.08;;
64367;SDS011;50692;53.314;-6.300;2022-09-21T21:37:14;5.32;;;2.42;;
64367;SDS011;50692;53.314;-6.300;2022-09-21T21:40:02;3.78;;;1.95;;
64367;SDS011;50692;53.314;-6.300;2022-09-21T21:42:48;2.80;;;1.98;;
64367;SDS011;50692;53.314;-6.300;2022-09-21T21:45:34;4.53;;;1.95;;
64367;SDS011;50692;53.314;-6.300;2022-09-21T21:48:20;3.45;;;1.77;;
64367;SDS011;50692;53.314;-6.300;2022-09-21T21:51:06;2.60;;;1.77;;
64367;SDS011;50692;53.314;-6.300;2022-09-21T21:53:52;4.18;;;2.15;;
64367;SDS011;50692;53.314;-6.300;2022-09-21T21:56:39;3.75;;;2.20;;
64367;SDS011;50692;53.314;-6.300;2022-09-21T21:59:25;3.28;;;2.20;;
64367;SDS011;50692;53.314;-6.300;2022-09-21T22:02:11;3.35;;;2.08;;
64367;SDS011;50692;53.314;-6.300;2022-09-21T22:04:58;2.50;;;1.83;;
64367;SDS011;50692;53.314;-6.300;2022-09-21T22:07:44;3.97;;;2.20;;
64367;SDS011;50692;53.314;-6.300;2022-09-21T22:10:29;2.47;;;1.92;;
64367;SDS011;50692;53.314;-6.300;2022-09-21T22:13:15;3.00;;;2.00;;
64367;SDS011;50692;53.314;-6.300;2022-09-21T22:19:07;4.80;;;2.47;;
64367;SDS011;50692;53.314;-6.300;2022-09-21T22:21:54;5.28;;;2.10;;
64367;SDS011;50692;53.314;-6.300;2022-09-21T22:24:39;2.67;;;1.60;;
64367;SDS011;50692;53.314;-6.300;2022-09-21T22:27:25;5.72;;;1.80;;
64367;SDS011;50692;53.314;-6.300;2022-09-21T22:30:11;3.22;;;2.00;;
64367;SDS011;50692;53.314;-6.300;2022-09-21T22:32:57;3.05;;;1.77;;
64367;SDS011;50692;53.314;-6.300;2022-09-21T22:35:43;1.70;;;1.40;;
64367;SDS011;50692;53.314;-6.300;2022-09-21T22:38:33;2.78;;;1.70;;
64367;SDS011;50692;53.314;-6.300;2022-09-21T22:41:22;4.25;;;1.92;;
64367;SDS011;50692;53.314;-6.300;2022-09-21T22:44:10;2.03;;;1.35;;
64367;SDS011;50692;53.314;-6.300;2022-09-21T22:46:57;2.72;;;1.60;;
64367;SDS011;50692;53.314;-6.300;2022-09-21T22:49:43;2.85;;;1.70;;
64367;SDS011;50692;53.314;-6.300;2022-09-21T22:52:28;2.75;;;1.77;;
64367;SDS011;50692;53.314;-6.300;2022-09-21T22:55:14;3.47;;;1.70;;
64367;SDS011;50692;53.314;-6.300;2022-09-21T22:58:00;2.83;;;1.60;;
64367;SDS011;50692;53.314;-6.300;2022-09-21T23:00:47;4.18;;;1.90;;
64367;SDS011;50692;53.314;-6.300;2022-09-21T23:03:33;5.75;;;1.80;;
64367;SDS011;50692;53.314;-6.300;2022-09-21T23:06:21;3.30;;;1.48;;
64367;SDS011;50692;53.314;-6.300;2022-09-21T23:09:14;3.53;;;1.73;;
64367;SDS011;50692;53.314;-6.300;2022-09-21T23:12:04;3.63;;;1.58;;
64367;SDS011;50692;53.314;-6.300;2022-09-21T23:14:50;2.70;;;1.52;;
64367;SDS011;50692;53.314;-6.300;2022-09-21T23:17:37;3.22;;;1.63;;
64367;SDS011;50692;53.314;-6.300;2022-09-21T23:20:23;3.10;;;1.80;;
64367;SDS011;50692;53.314;-6.300;2022-09-21T23:23:09;2.78;;;1.60;;
64367;SDS011;50692;53.314;-6.300;2022-09-21T23:26:02;1.63;;;1.52;;
64367;SDS011;50692;53.314;-6.300;2022-09-21T23:28:53;3.17;;;1.73;;
64367;SDS011;50692;53.314;-6.300;2022-09-21T23:31:41;3.50;;;1.75;;
64367;SDS011;50692;53.314;-6.300;2022-09-21T23:34:27;2.65;;;1.60;;
64367;SDS011;50692;53.314;-6.300;2022-09-21T23:37:14;2.45;;;1.73;;
64367;SDS011;50692;53.314;-6.300;2022-09-21T23:40:00;3.42;;;1.88;;
64367;SDS011;50692;53.314;-6.300;2022-09-21T23:42:46;1.75;;;1.60;;
64367;SDS011;50692;53.314;-6.300;2022-09-21T23:45:32;2.97;;;1.70;;
64367;SDS011;50692;53.314;-6.300;2022-09-21T23:48:18;4.43;;;1.45;;
64367;SDS011;50692;53.314;-6.300;2022-09-21T23:51:04;2.70;;;1.70;;
64367;SDS011;50692;53.314;-6.300;2022-09-21T23:53:51;3.10;;;1.80;;
64367;SDS011;50692;53.314;-6.300;2022-09-21T23:56:38;2.70;;;1.50;;
64367;SDS011;50692;53.314;-6.300;2022-09-21T23:59:25;2.33;;;2.00;;
